Latest Coastal Weather Observations for Flinders Reef

IDQ60701

Issued at 3:01 am EST Friday 28 July 2017 (issued every 10 minutes, with the page automatically refreshed every 10 minutes)

About coastal observations | Map of coastal stations | Coastal observations for QLD | Marine services | Other Formats
Station Details ID: 200783 Name: FLINDERS REEF Lat: -17.72 Lon: 148.45 Height: 2.6 m
Data from the previous 72 hours. | See also: Recent months at Flinders Reef
Date/Time
EST
Temp
°C
Wind Pressure Rain since
9am
mm
Weather Cloud Vis
km
Sea
Height
m
Swell
Dir  Spd
kts
Gust
kts
hPa Trend Height
m
Period
s
Dir
28/03:00am 23.7 SE 22 26 1018.6 - - - - - - - - -
28/02:30am 23.6 SE 22 25 1018.7 - - - - - - - - -
28/02:24am 23.7 SE 22 - 1018.7 - - - - - - - - -
28/02:00am 23.7 ESE 21 25 1018.9 - - - - - - - - -
28/01:30am 23.7 SE 21 25 1018.9 - - - - - - - - -
28/01:24am 23.6 SE 20 - 1018.8 - - - - - - - - -
28/01:00am 23.5 ESE 20 23 1019.0 - - - - - - - - -
28/12:30am 23.3 ESE 13 16 1019.5 - - - - - - - - -
28/12:24am 23.3 ESE 15 - 1019.3 - - - - - - - - -
28/12:00am 23.9 ESE 18 21 1019.6 - - - - - - - - -
 
Date/Time
EST
Temp
°C
Wind Pressure Rain since
9am
mm
Weather Cloud Vis
km
Sea
Height
m
Swell
Dir  Spd
kts
Gust
kts
hPa Trend Height
m
Period
s
Dir
27/11:30pm 24.1 SE 17 21 1019.7 - - - - - - - - -
27/11:24pm 23.8 ESE 16 - 1019.6 - - - - - - - - -
27/11:00pm 24.0 SE 20 24 1019.7 - - - - - - - - -
27/10:30pm 23.9 SE 19 21 1019.8 - - - - - - - - -
27/10:24pm 24.0 SE 19 - 1019.7 - - - - - - - - -
27/10:00pm 23.9 SE 18 21 1019.8 - - - - - - - - -
27/09:30pm 24.2 SE 20 23 1019.7 - - - - - - - - -
27/09:24pm 24.1 SE 19 - 1019.6 - - - - - - - - -
27/09:00pm 24.1 SE 20 25 1019.7 - - - - - - - - -
27/08:30pm 23.7 SE 17 19 1019.5 - - - - - - - - -
27/08:24pm 23.8 SSE 16 - 1019.2 - - - - - - - - -
27/08:00pm 24.1 ESE 19 22 1019.0 - - - - - - - - -
27/07:30pm 23.9 ESE 20 23 1018.5 - - - - - - - - -
27/07:24pm 24.0 ESE 20 - 1018.3 - - - - - - - - -
27/07:00pm 23.7 ESE 20 22 1018.0 - - - - - - - - -
27/06:30pm 23.5 SE 20 23 1017.7 - - - - - - - - -
27/06:24pm 23.4 SE 20 - 1017.5 - - - - - - - - -
27/06:00pm 23.3 SE 14 16 1017.6 - - - - - - - - -
27/05:30pm 23.2 SSE 17 19 1017.5 - - - - - - - - -
27/05:24pm 23.0 SSE 17 - 1017.3 - - - - - - - - -
27/05:00pm 23.1 SSE 17 21 1017.4 - - - - - - - - -
27/04:30pm 23.1 SSE 21 25 1017.6 - - - - - - - - -
27/04:24pm 23.0 SSE 22 - 1017.5 - - - - - - - - -
27/04:00pm 23.3 SSE 21 25 1017.5 - - - - - - - - -
27/03:30pm 23.2 SSE 22 26 1017.5 - - - - - - - - -
27/03:24pm 23.2 SSE 21 - 1017.3 - - - - - - - - -
27/03:00pm 23.3 SSE 20 22 1017.6 - - - - - - - - -
27/02:30pm 23.0 SSE 22 25 1017.8 - - - - - - - - -
27/02:24pm 23.2 SSE 21 - 1017.7 - - - - - - - - -
27/02:00pm 23.0 S 22 24 1018.0 - - - - - - - - -
27/01:30pm 23.1 S 22 25 1018.2 - - - - - - - - -
27/01:24pm 23.1 S 22 - 1018.1 - - - - - - - - -
27/01:00pm 24.4 SSE 23 27 1018.5 - - - - - - - - -
27/12:30pm 24.4 SE 21 25 1018.9 - - - - - - - - -
27/12:24pm 24.5 SE 21 - 1019.0 - - - - - - - - -
27/12:00pm 24.2 SE 20 23 1019.5 - - - - - - - - -
27/11:30am 24.3 SE 22 26 1019.8 - - - - - - - - -
27/11:24am 24.4 SE 22 - 1019.8 - - - - - - - - -
27/11:00am 24.0 SE 20 23 1020.0 - - - - - - - - -
27/10:45am 23.9 SE 17 22 1020.1 - - - - - - - - -
27/10:30am 23.3 SSE 20 25 1020.2 - - - - - - - - -
27/10:24am 23.5 SSE 21 - 1020.0 - - - - - - - - -
27/10:00am 23.3 SE 22 27 1020.0 - - - - - - - - -
27/09:30am 23.2 SE 20 28 1019.9 - - - - - - - - -
27/09:24am 23.3 SE 22 - 1019.7 - - - - - - - - -
27/09:00am 23.7 SE 23 28 1019.6 - - - - - - - - -
27/08:30am 23.1 SE 23 28 1019.4 - - - - - - - - -
27/08:24am 23.6 SE 23 - 1019.2 - - - - - - - - -
27/08:00am 24.1 SE 20 23 1018.8 - - - - - - - - -
27/07:30am 24.2 SE 20 25 1018.4 - - - - - - - - -
27/07:24am 24.2 SE 22 - 1018.2 - - - - - - - - -
27/07:00am 24.2 SE 22 26 1017.9 - - - - - - - - -
27/06:30am 24.1 SE 22 25 1017.7 - - - - - - - - -
27/06:24am 24.0 SE 22 - 1017.6 - - - - - - - - -
27/06:00am 23.8 SE 23 26 1017.6 - - - - - - - - -
27/05:30am 23.7 SE 24 27 1017.3 - - - - - - - - -
27/05:24am 24.0 SE 23 - 1017.1 - - - - - - - - -
27/05:00am 23.9 SE 23 27 1017.0 - - - - - - - - -
27/04:30am 23.8 SE 21 25 1017.1 - - - - - - - - -
27/04:24am 23.8 SE 21 - 1017.0 - - - - - - - - -
27/04:00am 23.8 SE 21 25 1017.1 - - - - - - - - -
27/03:30am 23.6 SE 21 24 1017.2 - - - - - - - - -
27/03:24am 23.6 SE 21 - 1017.2 - - - - - - - - -
27/03:00am 23.9 SE 21 24 1017.3 - - - - - - - - -
27/02:30am 24.1 SE 21 24 1017.4 - - - - - - - - -
27/02:24am 24.2 SE 21 - 1017.4 - - - - - - - - -
27/02:00am 24.6 SE 18 21 1017.8 - - - - - - - - -
27/01:30am 24.5 ESE 17 21 1018.0 - - - - - - - - -
27/01:24am 24.6 ESE 17 - 1017.9 - - - - - - - - -
27/01:00am 24.5 ESE 18 23 1018.2 - - - - - - - - -
27/12:30am 24.2 ESE 17 19 1018.4 - - - - - - - - -
27/12:24am 23.9 ESE 17 - 1018.3 - - - - - - - - -
27/12:00am 24.0 SE 18 21 1018.4 - - - - - - - - -
 
Date/Time
EST
Temp
°C
Wind Pressure Rain since
9am
mm
Weather Cloud Vis
km
Sea
Height
m
Swell
Dir  Spd
kts
Gust
kts
hPa Trend Height
m
Period
s
Dir
26/11:30pm 24.0 SE 19 21 1018.7 - - - - - - - - -
26/11:24pm 23.9 SE 18 - 1018.6 - - - - - - - - -
26/11:00pm 23.9 SE 18 21 1018.9 - - - - - - - - -
26/10:30pm 23.6 SE 20 23 1018.9 - - - - - - - - -
26/10:24pm 23.5 SE 21 - 1018.8 - - - - - - - - -
26/10:00pm 24.2 SE 19 24 1018.9 - - - - - - - - -
26/09:30pm 24.1 SE 17 21 1019.0 - - - - - - - - -
26/09:24pm 23.9 SE 17 - 1018.8 - - - - - - - - -
26/09:00pm 24.0 SE 19 21 1019.0 - - - - - - - - -
26/08:30pm 24.2 SE 19 21 1018.9 - - - - - - - - -
26/08:24pm 23.9 SE 18 - 1018.8 - - - - - - - - -
26/08:00pm 23.9 SE 17 21 1018.7 - - - - - - - - -
26/07:30pm 23.7 SE 20 25 1018.5 - - - - - - - - -
26/07:24pm 23.8 SE 20 - 1018.3 - - - - - - - - -
26/07:00pm 23.9 SE 21 24 1018.2 - - - - - - - - -
26/06:30pm 24.0 SE 18 21 1018.0 - - - - - - - - -
26/06:24pm 24.0 SE 18 - 1017.8 - - - - - - - - -
26/06:00pm 23.9 ESE 18 21 1017.7 - - - - - - - - -
26/05:30pm 23.8 SE 18 21 1017.5 - - - - - - - - -
26/05:24pm 23.9 SE 17 - 1017.4 - - - - - - - - -
26/05:00pm 24.0 ESE 17 20 1017.2 - - - - - - - - -
26/04:30pm 23.8 SE 17 19 1017.1 - - - - - - - - -
26/04:24pm 23.9 SE 16 - 1016.9 - - - - - - - - -
26/04:00pm 23.9 ESE 16 19 1016.9 - - - - - - - - -
26/03:30pm 23.9 ESE 15 18 1016.9 - - - - - - - - -
26/03:24pm 24.2 ESE 15 - 1016.8 - - - - - - - - -
26/03:00pm 23.7 ESE 16 20 1016.9 - - - - - - - - -
26/02:30pm 24.2 ESE 15 17 1016.9 - - - - - - - - -
26/02:24pm 24.2 ESE 15 - 1016.8 - - - - - - - - -
26/02:00pm 24.4 ESE 16 19 1017.2 - - - - - - - - -
26/01:30pm 24.4 ESE 17 19 1017.4 - - - - - - - - -
26/01:24pm 24.2 SE 17 - 1017.3 - - - - - - - - -
26/01:00pm 24.2 ESE 16 18 1017.8 - - - - - - - - -
26/12:30pm 23.8 ESE 15 23 1018.2 - - - - - - - - -
26/12:24pm 24.4 ESE 14 - 1018.2 - - - - - - - - -
26/12:00pm 24.3 ESE 15 18 1018.5 - - - - - - - - -
26/11:30am 24.4 ESE 16 18 1018.9 - - - - - - - - -
26/11:24am 24.4 ESE 16 - 1018.8 - - - - - - - - -
26/11:00am 24.2 ESE 16 19 1019.1 - - - - - - - - -
26/10:30am 24.1 ESE 16 19 1019.5 - - - - - - - - -
26/10:24am 24.1 ESE 16 - 1019.5 - - - - - - - - -
26/10:00am 24.1 ESE 15 18 1019.7 - - - - - - - - -
26/09:30am 24.0 ESE 16 19 1019.8 - - - - - - - - -
26/09:24am 23.9 ESE 16 - 1019.7 - - - - - - - - -
26/09:00am 24.0 ESE 17 20 1019.8 - - - - - - - - -
26/08:30am 23.8 ESE 17 20 1019.6 - - - - - - - - -
26/08:24am 23.9 ESE 18 - 1019.5 - - - - - - - - -
26/08:00am 24.0 ESE 17 20 1019.3 - - - - - - - - -
26/07:30am 23.6 SE 17 21 1018.8 - - - - - - - - -
26/07:24am 23.7 ESE 16 - 1018.6 - - - - - - - - -
26/07:00am 23.7 ESE 18 21 1018.5 - - - - - - - - -
26/06:30am 23.7 ESE 17 20 1018.2 - - - - - - - - -
26/06:24am 23.8 ESE 17 - 1018.1 - - - - - - - - -
26/06:00am 24.0 ESE 17 21 1017.9 - - - - - - - - -
26/05:30am 23.9 ESE 16 19 1017.5 - - - - - - - - -
26/05:24am 23.9 ESE 16 - 1017.3 - - - - - - - - -
26/05:00am 23.8 ESE 19 22 1017.3 - - - - - - - - -
26/04:30am 23.8 ESE 19 23 1017.2 - - - - - - - - -
26/04:24am 23.9 SE 20 - 1017.1 - - - - - - - - -
26/04:00am 23.8 ESE 20 23 1017.2 - - - - - - - - -
26/03:30am 23.7 ESE 19 22 1017.2 - - - - - - - - -
26/03:24am 23.8 ESE 18 - 1017.1 - - - - - - - - -
26/03:00am 23.7 ESE 21 24 1017.4 - - - - - - - - -
26/02:30am 23.8 SE 20 24 1017.5 - - - - - - - - -
26/02:24am 23.7 SE 20 - 1017.5 - - - - - - - - -
26/02:00am 23.9 SE 19 23 1017.7 - - - - - - - - -
26/01:30am 24.4 SE 19 24 1017.8 - - - - - - - - -
26/01:24am 24.5 SE 17 - 1017.8 - - - - - - - - -
26/01:00am 23.9 ESE 16 19 1018.2 - - - - - - - - -
26/12:30am 23.8 ESE 19 21 1018.4 - - - - - - - - -
26/12:24am 24.0 ESE 20 - 1018.4 - - - - - - - - -
26/12:00am 23.9 SE 22 25 1018.4 - - - - - - - - -
 
Date/Time
EST
Temp
°C
Wind Pressure Rain since
9am
mm
Weather Cloud Vis
km
Sea
Height
m
Swell
Dir  Spd
kts
Gust
kts
hPa Trend Height
m
Period
s
Dir
25/11:30pm 24.1 SE 20 23 1018.6 - - - - - - - - -
25/11:24pm 24.0 SE 20 - 1018.6 - - - - - - - - -
25/11:00pm 24.1 ESE 18 21 1019.0 - - - - - - - - -
25/10:30pm 24.3 ESE 18 22 1019.1 - - - - - - - - -
25/10:24pm 24.2 SE 18 - 1019.1 - - - - - - - - -
25/10:00pm 23.9 SE 18 22 1019.3 - - - - - - - - -
25/09:30pm 23.9 SE 18 20 1019.3 - - - - - - - - -
25/09:24pm 24.2 SE 19 - 1019.3 - - - - - - - - -
25/09:00pm 24.1 ESE 22 25 1019.4 - - - - - - - - -
25/08:30pm 24.2 ESE 20 24 1019.2 - - - - - - - - -
25/08:24pm 24.1 ESE 18 - 1019.1 - - - - - - - - -
25/08:00pm 24.0 ESE 20 24 1019.0 - - - - - - - - -
25/07:30pm 24.1 ESE 20 23 1018.9 - - - - - - - - -
25/07:24pm 24.1 ESE 20 - 1018.7 - - - - - - - - -
25/07:00pm 24.1 ESE 21 24 1018.5 - - - - - - - - -
25/06:30pm 24.0 ESE 19 23 1018.2 - - - - - - - - -
25/06:24pm 24.0 ESE 19 - 1018.1 - - - - - - - - -
25/06:00pm 24.0 ESE 19 22 1017.9 - - - - - - - - -
25/05:30pm 24.1 ESE 18 21 1017.6 - - - - - - - - -
25/05:24pm 24.1 SE 18 - 1017.4 - - - - - - - - -
25/05:00pm 24.1 SE 20 23 1017.4 - - - - - - - - -
25/04:30pm 24.3 SE 18 21 1017.2 - - - - - - - - -
25/04:24pm 24.1 SE 18 - 1017.1 - - - - - - - - -
25/04:00pm 24.2 SE 19 22 1017.0 - - - - - - - - -
25/03:30pm 24.2 ESE 19 22 1016.9 - - - - - - - - -
25/03:24pm 24.1 ESE 19 - 1016.8 - - - - - - - - -
25/03:00pm 24.1 ESE 20 23 1016.9 - - - - - - - - -
25/02:30pm 24.3 ESE 19 21 1017.0 - - - - - - - - -
25/02:24pm 24.3 ESE 18 - 1016.9 - - - - - - - - -
25/02:00pm 24.4 ESE 19 22 1017.1 - - - - - - - - -
25/01:30pm 24.4 ESE 17 19 1017.3 - - - - - - - - -
25/01:24pm 24.5 ESE 17 - 1017.3 - - - - - - - - -
25/01:00pm 24.5 ESE 15 18 1017.6 - - - - - - - - -
25/12:30pm 24.6 SE 15 19 1017.9 - - - - - - - - -
25/12:24pm 24.6 SE 16 - 1017.8 - - - - - - - - -
25/12:00pm 24.8 ESE 19 22 1018.3 - - - - - - - - -
25/11:30am 24.6 ESE 19 23 1018.7 - - - - - - - - -
25/11:24am 24.6 ESE 19 - 1018.7 - - - - - - - - -
25/11:00am 24.3 ESE 17 21 1019.2 - - - - - - - - -
25/10:30am 24.4 ESE 17 21 1019.4 - - - - - - - - -
25/10:24am 24.6 ESE 18 - 1019.4 - - - - - - - - -
25/10:00am 24.7 ESE 19 21 1019.6 - - - - - - - - -
25/09:30am 24.7 ESE 18 23 1019.6 - - - - - - - - -
25/09:24am 24.9 E 17 - 1019.6 - - - - - - - - -
25/09:00am 25.1 E 19 21 1019.6 - - - - - - - - -
25/08:30am 24.7 ESE 19 22 1019.4 - - - - - - - - -
25/08:24am 24.9 E 18 - 1019.2 - - - - - - - - -
25/08:00am 24.7 ESE 18 21 1019.1 - - - - - - - - -
25/07:30am 24.5 ESE 19 23 1018.9 - - - - - - - - -
25/07:24am 24.5 E 20 - 1018.7 - - - - - - - - -
25/07:00am 24.5 ESE 19 22 1018.5 - - - - - - - - -
25/06:30am 24.5 ESE 19 22 1018.1 - - - - - - - - -
25/06:24am 24.5 ESE 19 - 1018.0 - - - - - - - - -
25/06:00am 24.7 ESE 19 22 1017.9 - - - - - - - - -
25/05:30am 23.9 ESE 14 17 1017.8 - - - - - - - - -
25/05:24am 23.8 SE 14 - 1017.6 - - - - - - - - -
25/05:00am 24.3 ESE 16 19 1017.5 - - - - - - - - -
25/04:30am 24.1 SE 15 17 1017.4 - - - - - - - - -
25/04:24am 24.0 SE 14 - 1017.3 - - - - - - - - -
25/04:00am 24.1 SE 15 17 1017.4 - - - - - - - - -
25/03:30am 24.3 ESE 15 18 1017.4 - - - - - - - - -
25/03:24am 24.2 ESE 15 - 1017.3 - - - - - - - - -

Other Formats:

Comma delimited format used in spreadsheet applications
http://www.bom.gov.au/fwo/IDQ60701/IDQ60701.94290.axf

JavaScript Object Notation format (JSON) in row-major order
http://www.bom.gov.au/fwo/IDQ60701/IDQ60701.94290.json